BCS840 LYBE-LIMC
Flight info
| Callsign | BCS840 |
|---|---|
| Flight time | 1h 37m |
| Altitude | 38000 |
| Route | TUVAR DCT TEBLI DCT RUGOG DCT PEVAL/N0462F370 DCT ROSKA/N0461F380 DCT LAPAB DCT ADOSA/N0463F370 DCT IDREK DCT ELTAR DCT NOBMI DCT PEXUG |
| Aircraft | B738/M-SDE2E3FGHIRWXY/LB1 |
Departure
| Time | 2026-02-19 14:16 |
|---|---|
| Airport | Belgrade Nikola Tesla Airport (LYBE) |
Arrival
| Time | 2026-02-19 15:54 |
|---|---|
| Airport | Milan Malpensa International Airport (LIMC) |
| Time | Latitude | Longitude | Altitude | Speed | Heading |
|---|---|---|---|---|---|
| 2026-02-19 13:52 | 44.81580 | 20.29184 | 306 ft | 0 kts | 211° |
| 2026-02-19 14:08 | 44.81580 | 20.29183 | 306 ft | 0 kts | 211° |
| 2026-02-19 14:09 | 44.81577 | 20.29181 | 304 ft | 3 kts | 214° |
| 2026-02-19 14:09 | 44.81581 | 20.29123 | 306 ft | 9 kts | 314° |
| 2026-02-19 14:09 | 44.81646 | 20.29129 | 306 ft | 10 kts | 28° |
| 2026-02-19 14:09 | 44.81691 | 20.29192 | 309 ft | 9 kts | 75° |
| 2026-02-19 14:10 | 44.81695 | 20.29280 | 306 ft | 9 kts | 55° |
| 2026-02-19 14:10 | 44.81745 | 20.29332 | 306 ft | 9 kts | 31° |
| 2026-02-19 14:10 | 44.81796 | 20.29377 | 306 ft | 9 kts | 31° |
| 2026-02-19 14:10 | 44.81847 | 20.29420 | 307 ft | 8 kts | 32° |
| 2026-02-19 14:11 | 44.81895 | 20.29463 | 306 ft | 8 kts | 32° |
| 2026-02-19 14:11 | 44.81945 | 20.29463 | 306 ft | 8 kts | 317° |
| 2026-02-19 14:11 | 44.81994 | 20.29440 | 306 ft | 8 kts | 11° |
| 2026-02-19 14:11 | 44.82041 | 20.29475 | 307 ft | 8 kts | 31° |
| 2026-02-19 14:12 | 44.82084 | 20.29514 | 306 ft | 7 kts | 33° |
| 2026-02-19 14:12 | 44.82160 | 20.29484 | 307 ft | 7 kts | 303° |
| 2026-02-19 14:12 | 44.82185 | 20.29428 | 307 ft | 7 kts | 302° |
| 2026-02-19 14:13 | 44.82210 | 20.29372 | 308 ft | 7 kts | 302° |
| 2026-02-19 14:13 | 44.82235 | 20.29317 | 308 ft | 7 kts | 302° |
| 2026-02-19 14:13 | 44.82259 | 20.29262 | 309 ft | 7 kts | 303° |
| 2026-02-19 14:13 | 44.82296 | 20.29182 | 307 ft | 13 kts | 302° |
| 2026-02-19 14:14 | 44.82347 | 20.29064 | 308 ft | 11 kts | 301° |
| 2026-02-19 14:14 | 44.82386 | 20.28972 | 306 ft | 11 kts | 304° |
| 2026-02-19 14:14 | 44.82432 | 20.28891 | 306 ft | 10 kts | 314° |
| 2026-02-19 14:14 | 44.82497 | 20.28860 | 306 ft | 10 kts | 9° |
| 2026-02-19 14:15 | 44.82518 | 20.28939 | 307 ft | 10 kts | 109° |
| 2026-02-19 14:15 | 44.82458 | 20.29076 | 307 ft | 41 kts | 122° |
| 2026-02-19 14:15 | 44.82180 | 20.29704 | 307 ft | 109 kts | 122° |
| 2026-02-19 14:15 | 44.81669 | 20.30833 | 312 ft | 162 kts | 118° |
| 2026-02-19 14:16 | 44.81047 | 20.32298 | 718 ft | 179 kts | 126° |
| 2026-02-19 14:16 | 44.79524 | 20.34905 | 2465 ft | 171 kts | 159° |
| 2026-02-19 14:16 | 44.78309 | 20.35166 | 2930 ft | 183 kts | 189° |
| 2026-02-19 14:17 | 44.76982 | 20.34994 | 3338 ft | 201 kts | 185° |
| 2026-02-19 14:17 | 44.75526 | 20.35023 | 3659 ft | 220 kts | 181° |
| 2026-02-19 14:17 | 44.73963 | 20.35194 | 4216 ft | 225 kts | 179° |
| 2026-02-19 14:17 | 44.72384 | 20.35397 | 4898 ft | 232 kts | 179° |
| 2026-02-19 14:18 | 44.70768 | 20.35662 | 5583 ft | 237 kts | 178° |
| 2026-02-19 14:18 | 44.69109 | 20.35940 | 5922 ft | 241 kts | 178° |
| 2026-02-19 14:18 | 44.67416 | 20.36212 | 5962 ft | 247 kts | 179° |
| 2026-02-19 14:18 | 44.65842 | 20.36457 | 5955 ft | 245 kts | 179° |
| 2026-02-19 14:19 | 44.64117 | 20.36721 | 5970 ft | 242 kts | 179° |
| 2026-02-19 14:19 | 44.62448 | 20.36969 | 5976 ft | 241 kts | 179° |
| 2026-02-19 14:19 | 44.60770 | 20.37212 | 6044 ft | 245 kts | 179° |
| 2026-02-19 14:19 | 44.59059 | 20.37459 | 6616 ft | 248 kts | 179° |
| 2026-02-19 14:20 | 44.53971 | 20.37445 | 8836 ft | 244 kts | 213° |
| 2026-02-19 14:20 | 44.52747 | 20.35841 | 9539 ft | 243 kts | 240° |
| 2026-02-19 14:21 | 44.52183 | 20.33593 | 9997 ft | 255 kts | 264° |
| 2026-02-19 14:21 | 44.52398 | 20.31064 | 10463 ft | 269 kts | 285° |
| 2026-02-19 14:21 | 44.53039 | 20.28610 | 11141 ft | 273 kts | 288° |
| 2026-02-19 14:21 | 44.53756 | 20.26101 | 11914 ft | 275 kts | 288° |
| 2026-02-19 14:22 | 44.54478 | 20.23604 | 12688 ft | 278 kts | 288° |
| 2026-02-19 14:22 | 44.55193 | 20.21116 | 13464 ft | 280 kts | 288° |
| 2026-02-19 14:22 | 44.55916 | 20.18572 | 14200 ft | 282 kts | 288° |
| 2026-02-19 14:22 | 44.56639 | 20.16008 | 14936 ft | 284 kts | 287° |
| 2026-02-19 14:23 | 44.57362 | 20.13429 | 15687 ft | 286 kts | 287° |
| 2026-02-19 14:23 | 44.58091 | 20.10814 | 16426 ft | 288 kts | 287° |
| 2026-02-19 14:23 | 44.58823 | 20.08184 | 17151 ft | 291 kts | 287° |
| 2026-02-19 14:23 | 44.59559 | 20.05531 | 17889 ft | 293 kts | 287° |
| 2026-02-19 14:24 | 44.60301 | 20.02853 | 18557 ft | 295 kts | 287° |
| 2026-02-19 14:24 | 44.61793 | 19.97460 | 19864 ft | 299 kts | 286° |
| 2026-02-19 14:24 | 44.62547 | 19.94729 | 20507 ft | 300 kts | 286° |
| 2026-02-19 14:25 | 44.63301 | 19.91995 | 21190 ft | 301 kts | 285° |
| 2026-02-19 14:25 | 44.64066 | 19.89257 | 21859 ft | 303 kts | 288° |
| 2026-02-19 14:25 | 44.65229 | 19.86728 | 22473 ft | 317 kts | 304° |
| 2026-02-19 14:25 | 44.66829 | 19.84553 | 23103 ft | 323 kts | 309° |
| 2026-02-19 14:26 | 44.68529 | 19.82451 | 23647 ft | 327 kts | 310° |
| 2026-02-19 14:26 | 44.70256 | 19.80352 | 24151 ft | 329 kts | 310° |
| 2026-02-19 14:26 | 44.71989 | 19.78237 | 24668 ft | 330 kts | 310° |
| 2026-02-19 14:26 | 44.73721 | 19.76104 | 25174 ft | 332 kts | 309° |
| 2026-02-19 14:27 | 44.75456 | 19.73953 | 25669 ft | 333 kts | 309° |
| 2026-02-19 14:27 | 44.77196 | 19.71782 | 26149 ft | 335 kts | 309° |
| 2026-02-19 14:27 | 44.78948 | 19.69589 | 26560 ft | 340 kts | 309° |
| 2026-02-19 14:27 | 44.80721 | 19.67363 | 26997 ft | 342 kts | 309° |
| 2026-02-19 14:28 | 44.82503 | 19.65128 | 27496 ft | 343 kts | 309° |
| 2026-02-19 14:28 | 44.86081 | 19.60631 | 28459 ft | 346 kts | 308° |
| 2026-02-19 14:28 | 44.87876 | 19.58360 | 28910 ft | 347 kts | 307° |
| 2026-02-19 14:29 | 44.89425 | 19.55824 | 29318 ft | 338 kts | 297° |
| 2026-02-19 14:29 | 44.90745 | 19.53136 | 29741 ft | 338 kts | 295° |
| 2026-02-19 14:29 | 44.92075 | 19.50340 | 30121 ft | 340 kts | 295° |
| 2026-02-19 14:29 | 44.93394 | 19.47567 | 30484 ft | 341 kts | 295° |
| 2026-02-19 14:30 | 44.94725 | 19.44789 | 30850 ft | 342 kts | 295° |
| 2026-02-19 14:30 | 44.96049 | 19.42050 | 31180 ft | 344 kts | 295° |
| 2026-02-19 14:30 | 44.97409 | 19.39247 | 31435 ft | 347 kts | 295° |
| 2026-02-19 14:30 | 44.98798 | 19.36394 | 31774 ft | 349 kts | 295° |
| 2026-02-19 14:31 | 45.00176 | 19.33571 | 32120 ft | 349 kts | 295° |
| 2026-02-19 14:31 | 45.01555 | 19.30745 | 32465 ft | 350 kts | 295° |
| 2026-02-19 14:31 | 45.02917 | 19.27951 | 32766 ft | 351 kts | 295° |
| 2026-02-19 14:31 | 45.04306 | 19.25099 | 33060 ft | 353 kts | 295° |
| 2026-02-19 14:32 | 45.05700 | 19.22232 | 33357 ft | 354 kts | 295° |
| 2026-02-19 14:32 | 45.08500 | 19.16471 | 33901 ft | 356 kts | 295° |
| 2026-02-19 14:32 | 45.09925 | 19.13533 | 34122 ft | 359 kts | 295° |
| 2026-02-19 14:33 | 45.11317 | 19.10652 | 34297 ft | 360 kts | 294° |
| 2026-02-19 14:33 | 45.12408 | 19.07529 | 34465 ft | 350 kts | 281° |
| 2026-02-19 14:33 | 45.13092 | 19.00744 | 34566 ft | 353 kts | 269° |
| 2026-02-19 14:34 | 45.13335 | 18.93702 | 34656 ft | 363 kts | 269° |
| 2026-02-19 14:34 | 45.13580 | 18.86456 | 34743 ft | 373 kts | 269° |
| 2026-02-19 14:35 | 45.13851 | 18.79069 | 35023 ft | 377 kts | 270° |
| 2026-02-19 14:35 | 45.13992 | 18.75361 | 35274 ft | 377 kts | 269° |
| 2026-02-19 14:35 | 45.14133 | 18.71656 | 35503 ft | 377 kts | 269° |
| 2026-02-19 14:36 | 45.14274 | 18.67955 | 35720 ft | 377 kts | 269° |
| 2026-02-19 14:36 | 45.14552 | 18.60541 | 36127 ft | 377 kts | 269° |
| 2026-02-19 14:36 | 45.14690 | 18.56829 | 36317 ft | 377 kts | 269° |
| 2026-02-19 14:37 | 45.14826 | 18.53114 | 36507 ft | 378 kts | 269° |
| 2026-02-19 14:37 | 45.14962 | 18.49392 | 36685 ft | 378 kts | 269° |
| 2026-02-19 14:37 | 45.15096 | 18.45662 | 36830 ft | 380 kts | 269° |
| 2026-02-19 14:38 | 45.15362 | 18.38153 | 37021 ft | 384 kts | 269° |
| 2026-02-19 14:38 | 45.15494 | 18.34384 | 37194 ft | 384 kts | 269° |
| 2026-02-19 14:38 | 45.15626 | 18.30604 | 37378 ft | 384 kts | 269° |
| 2026-02-19 14:38 | 45.15769 | 18.26826 | 37531 ft | 384 kts | 270° |
| 2026-02-19 14:39 | 45.15955 | 18.23048 | 37686 ft | 385 kts | 270° |
| 2026-02-19 14:39 | 45.16365 | 18.15463 | 37739 ft | 387 kts | 270° |
| 2026-02-19 14:40 | 45.16772 | 18.07869 | 37739 ft | 385 kts | 270° |
| 2026-02-19 14:40 | 45.17352 | 17.96542 | 37737 ft | 383 kts | 270° |
| 2026-02-19 14:41 | 45.17724 | 17.89048 | 37738 ft | 383 kts | 270° |
| 2026-02-19 14:41 | 45.18092 | 17.81509 | 37737 ft | 384 kts | 270° |
| 2026-02-19 14:42 | 45.18456 | 17.73941 | 37734 ft | 385 kts | 270° |
| 2026-02-19 14:42 | 45.18816 | 17.66348 | 37727 ft | 387 kts | 270° |
| 2026-02-19 14:43 | 45.19173 | 17.58743 | 37715 ft | 387 kts | 270° |
| 2026-02-19 14:43 | 45.19525 | 17.51113 | 37731 ft | 388 kts | 270° |
| 2026-02-19 14:44 | 45.20046 | 17.39640 | 37718 ft | 389 kts | 270° |
| 2026-02-19 14:45 | 45.20386 | 17.31990 | 37705 ft | 389 kts | 270° |
| 2026-02-19 14:45 | 45.20721 | 17.24345 | 37713 ft | 389 kts | 270° |
| 2026-02-19 14:46 | 45.21051 | 17.16693 | 37691 ft | 389 kts | 269° |
| 2026-02-19 14:46 | 45.21377 | 17.09025 | 37696 ft | 390 kts | 269° |
| 2026-02-19 14:47 | 45.21697 | 17.01348 | 37681 ft | 390 kts | 269° |
| 2026-02-19 14:47 | 45.22013 | 16.93677 | 37685 ft | 390 kts | 269° |
| 2026-02-19 14:48 | 45.22324 | 16.85994 | 37673 ft | 390 kts | 269° |
| 2026-02-19 14:48 | 45.22780 | 16.74471 | 37669 ft | 391 kts | 269° |
| 2026-02-19 14:49 | 45.23028 | 16.68064 | 37668 ft | 391 kts | 269° |
| 2026-02-19 14:49 | 45.23323 | 16.60347 | 37671 ft | 393 kts | 269° |
| 2026-02-19 14:50 | 45.23614 | 16.52586 | 37658 ft | 394 kts | 269° |
| 2026-02-19 14:50 | 45.23901 | 16.44807 | 37655 ft | 395 kts | 269° |
| 2026-02-19 14:51 | 45.24182 | 16.37016 | 37665 ft | 396 kts | 269° |
| 2026-02-19 14:51 | 45.24460 | 16.29194 | 37658 ft | 397 kts | 269° |
| 2026-02-19 14:52 | 45.24867 | 16.17431 | 37649 ft | 398 kts | 269° |
| 2026-02-19 14:53 | 45.25133 | 16.09585 | 37644 ft | 398 kts | 269° |
| 2026-02-19 14:53 | 45.25392 | 16.01752 | 37645 ft | 398 kts | 269° |
| 2026-02-19 14:54 | 45.25646 | 15.93894 | 37661 ft | 399 kts | 269° |
| 2026-02-19 14:54 | 45.25894 | 15.86067 | 37651 ft | 400 kts | 269° |
| 2026-02-19 14:55 | 45.26139 | 15.78159 | 37644 ft | 402 kts | 269° |
| 2026-02-19 14:55 | 45.26379 | 15.70221 | 37643 ft | 403 kts | 269° |
| 2026-02-19 14:56 | 45.26615 | 15.62258 | 37641 ft | 404 kts | 269° |
| 2026-02-19 14:56 | 45.26960 | 15.50258 | 37641 ft | 407 kts | 269° |
| 2026-02-19 14:57 | 45.27185 | 15.42202 | 37638 ft | 409 kts | 269° |
| 2026-02-19 14:57 | 45.27405 | 15.34087 | 37644 ft | 412 kts | 269° |
| 2026-02-19 14:58 | 45.27620 | 15.25944 | 37626 ft | 413 kts | 269° |
| 2026-02-19 14:58 | 45.27830 | 15.17800 | 37639 ft | 413 kts | 269° |
| 2026-02-19 14:59 | 45.28033 | 15.09646 | 37638 ft | 413 kts | 269° |
| 2026-02-19 14:59 | 45.28230 | 15.01501 | 37630 ft | 413 kts | 269° |
| 2026-02-19 15:00 | 45.28518 | 14.89297 | 37634 ft | 412 kts | 269° |
| 2026-02-19 15:01 | 45.28700 | 14.81173 | 37651 ft | 412 kts | 269° |
| 2026-02-19 15:01 | 45.28878 | 14.73035 | 37638 ft | 412 kts | 269° |
| 2026-02-19 15:02 | 45.29050 | 14.64904 | 37643 ft | 412 kts | 269° |
| 2026-02-19 15:02 | 45.29216 | 14.56763 | 37639 ft | 412 kts | 269° |
| 2026-02-19 15:03 | 45.29376 | 14.48618 | 37629 ft | 412 kts | 269° |
| 2026-02-19 15:03 | 45.29531 | 14.40488 | 37651 ft | 412 kts | 269° |
| 2026-02-19 15:04 | 45.29679 | 14.32369 | 37631 ft | 411 kts | 269° |
| 2026-02-19 15:04 | 45.29890 | 14.20212 | 37631 ft | 411 kts | 269° |
| 2026-02-19 15:05 | 45.30024 | 14.12090 | 37610 ft | 411 kts | 269° |
| 2026-02-19 15:05 | 45.30152 | 14.03973 | 37609 ft | 411 kts | 269° |
| 2026-02-19 15:06 | 45.30274 | 13.95868 | 37609 ft | 411 kts | 268° |
| 2026-02-19 15:06 | 45.30391 | 13.87756 | 37597 ft | 410 kts | 268° |
| 2026-02-19 15:07 | 45.30501 | 13.79667 | 37603 ft | 409 kts | 268° |
| 2026-02-19 15:07 | 45.30606 | 13.71588 | 37609 ft | 409 kts | 268° |
| 2026-02-19 15:08 | 45.30752 | 13.59456 | 37588 ft | 410 kts | 268° |
| 2026-02-19 15:09 | 45.30842 | 13.51353 | 37580 ft | 411 kts | 268° |
| 2026-02-19 15:09 | 45.30935 | 13.43238 | 37584 ft | 411 kts | 270° |
| 2026-02-19 15:10 | 45.31792 | 13.35164 | 37581 ft | 415 kts | 277° |
| 2026-02-19 15:10 | 45.32883 | 13.27104 | 37579 ft | 416 kts | 277° |
| 2026-02-19 15:11 | 45.33943 | 13.19080 | 37574 ft | 417 kts | 277° |
| 2026-02-19 15:11 | 45.34985 | 13.10958 | 37567 ft | 418 kts | 277° |
| 2026-02-19 15:12 | 45.36013 | 13.02823 | 37557 ft | 418 kts | 277° |
| 2026-02-19 15:12 | 45.37543 | 12.90592 | 37553 ft | 419 kts | 277° |
| 2026-02-19 15:13 | 45.38560 | 12.82405 | 37556 ft | 421 kts | 277° |
| 2026-02-19 15:13 | 45.39573 | 12.74200 | 37554 ft | 421 kts | 277° |
| 2026-02-19 15:14 | 45.40583 | 12.65973 | 37552 ft | 422 kts | 277° |
| 2026-02-19 15:14 | 45.41588 | 12.57733 | 37554 ft | 423 kts | 277° |
| 2026-02-19 15:15 | 45.42589 | 12.49472 | 37571 ft | 424 kts | 277° |
| 2026-02-19 15:15 | 45.43586 | 12.41191 | 37559 ft | 425 kts | 277° |
| 2026-02-19 15:16 | 45.45075 | 12.28734 | 37552 ft | 426 kts | 277° |
| 2026-02-19 15:17 | 45.46060 | 12.20427 | 37556 ft | 426 kts | 277° |
| 2026-02-19 15:17 | 45.47041 | 12.12090 | 37592 ft | 426 kts | 277° |
| 2026-02-19 15:18 | 45.48017 | 12.03751 | 37583 ft | 426 kts | 277° |
| 2026-02-19 15:18 | 45.48985 | 11.95422 | 37576 ft | 426 kts | 277° |
| 2026-02-19 15:19 | 45.49947 | 11.87090 | 37575 ft | 426 kts | 277° |
| 2026-02-19 15:19 | 45.50902 | 11.78768 | 37579 ft | 425 kts | 277° |
| 2026-02-19 15:20 | 45.51848 | 11.70459 | 37586 ft | 424 kts | 277° |
| 2026-02-19 15:20 | 45.53256 | 11.57996 | 37551 ft | 425 kts | 277° |
| 2026-02-19 15:21 | 45.53725 | 11.53816 | 37255 ft | 429 kts | 277° |
| 2026-02-19 15:21 | 45.54194 | 11.49619 | 36993 ft | 427 kts | 277° |
| 2026-02-19 15:21 | 45.54660 | 11.45439 | 36730 ft | 426 kts | 276° |
| 2026-02-19 15:21 | 45.55118 | 11.41319 | 36479 ft | 427 kts | 276° |
| 2026-02-19 15:22 | 45.56043 | 11.32943 | 35976 ft | 428 kts | 276° |
| 2026-02-19 15:22 | 45.56504 | 11.28751 | 35740 ft | 429 kts | 276° |
| 2026-02-19 15:22 | 45.56965 | 11.24542 | 35507 ft | 430 kts | 276° |
| 2026-02-19 15:23 | 45.57425 | 11.20328 | 35269 ft | 431 kts | 276° |
| 2026-02-19 15:23 | 45.57884 | 11.16102 | 35033 ft | 432 kts | 276° |
| 2026-02-19 15:23 | 45.58344 | 11.11858 | 34802 ft | 433 kts | 276° |
| 2026-02-19 15:23 | 45.58803 | 11.07607 | 34569 ft | 434 kts | 275° |
| 2026-02-19 15:24 | 45.60177 | 10.94783 | 33888 ft | 438 kts | 276° |
| 2026-02-19 15:24 | 45.60636 | 10.90471 | 33667 ft | 440 kts | 276° |
| 2026-02-19 15:25 | 45.61095 | 10.86149 | 33300 ft | 440 kts | 276° |
| 2026-02-19 15:25 | 45.61552 | 10.81822 | 32531 ft | 440 kts | 276° |
| 2026-02-19 15:25 | 45.62007 | 10.77499 | 31790 ft | 441 kts | 276° |
| 2026-02-19 15:25 | 45.62462 | 10.73162 | 31040 ft | 442 kts | 276° |
| 2026-02-19 15:26 | 45.62915 | 10.68817 | 30280 ft | 443 kts | 276° |
| 2026-02-19 15:26 | 45.63369 | 10.64458 | 29527 ft | 444 kts | 276° |
| 2026-02-19 15:26 | 45.63819 | 10.60123 | 28904 ft | 439 kts | 277° |
| 2026-02-19 15:26 | 45.64263 | 10.55831 | 28299 ft | 434 kts | 277° |
| 2026-02-19 15:27 | 45.64697 | 10.51596 | 27727 ft | 428 kts | 276° |
| 2026-02-19 15:27 | 45.64963 | 10.47372 | 26843 ft | 429 kts | 271° |
| 2026-02-19 15:27 | 45.65017 | 10.43140 | 26242 ft | 424 kts | 270° |
| 2026-02-19 15:27 | 45.65016 | 10.38936 | 25633 ft | 421 kts | 270° |
| 2026-02-19 15:28 | 45.65005 | 10.34780 | 25075 ft | 416 kts | 270° |
| 2026-02-19 15:28 | 45.65014 | 10.26594 | 23987 ft | 408 kts | 271° |
| 2026-02-19 15:28 | 45.65032 | 10.22568 | 23472 ft | 404 kts | 271° |
| 2026-02-19 15:29 | 45.65056 | 10.18567 | 22893 ft | 401 kts | 271° |
| 2026-02-19 15:29 | 45.65081 | 10.14601 | 22314 ft | 397 kts | 272° |
| 2026-02-19 15:29 | 45.65106 | 10.10685 | 21784 ft | 392 kts | 272° |
| 2026-02-19 15:30 | 45.65151 | 10.02995 | 20771 ft | 383 kts | 272° |
| 2026-02-19 15:30 | 45.65171 | 9.99208 | 20284 ft | 379 kts | 272° |
| 2026-02-19 15:30 | 45.65189 | 9.95463 | 19787 ft | 376 kts | 272° |
| 2026-02-19 15:30 | 45.65206 | 9.91741 | 19279 ft | 372 kts | 272° |
| 2026-02-19 15:31 | 45.65222 | 9.88057 | 18792 ft | 369 kts | 272° |
| 2026-02-19 15:31 | 45.65250 | 9.80784 | 17800 ft | 363 kts | 273° |
| 2026-02-19 15:31 | 45.65262 | 9.77184 | 17274 ft | 361 kts | 273° |
| 2026-02-19 15:32 | 45.65273 | 9.73612 | 16791 ft | 357 kts | 273° |
| 2026-02-19 15:32 | 45.65292 | 9.66580 | 15820 ft | 351 kts | 274° |
| 2026-02-19 15:32 | 45.65298 | 9.63105 | 15342 ft | 348 kts | 274° |
| 2026-02-19 15:33 | 45.65312 | 9.56181 | 14245 ft | 347 kts | 274° |
| 2026-02-19 15:33 | 45.65317 | 9.52757 | 13989 ft | 341 kts | 274° |
| 2026-02-19 15:33 | 45.65320 | 9.49433 | 13850 ft | 329 kts | 274° |
| 2026-02-19 15:34 | 45.65326 | 9.43142 | 13568 ft | 308 kts | 275° |
| 2026-02-19 15:34 | 45.65328 | 9.40133 | 13446 ft | 297 kts | 275° |
| 2026-02-19 15:34 | 45.65328 | 9.37232 | 13250 ft | 287 kts | 275° |
| 2026-02-19 15:35 | 45.65329 | 9.34419 | 13060 ft | 280 kts | 275° |
| 2026-02-19 15:35 | 45.65341 | 9.31662 | 12799 ft | 275 kts | 275° |
| 2026-02-19 15:35 | 45.65358 | 9.28937 | 12490 ft | 273 kts | 275° |
| 2026-02-19 15:35 | 45.65369 | 9.27109 | 12291 ft | 271 kts | 275° |
| 2026-02-19 15:36 | 45.65385 | 9.24421 | 11995 ft | 269 kts | 275° |
| 2026-02-19 15:36 | 45.65412 | 9.19113 | 11413 ft | 265 kts | 275° |
| 2026-02-19 15:36 | 45.65424 | 9.16493 | 11122 ft | 263 kts | 275° |
| 2026-02-19 15:37 | 45.65435 | 9.13883 | 10832 ft | 261 kts | 275° |
| 2026-02-19 15:37 | 45.65445 | 9.11328 | 10548 ft | 260 kts | 275° |
| 2026-02-19 15:37 | 45.65454 | 9.08750 | 10267 ft | 259 kts | 275° |
| 2026-02-19 15:37 | 45.65463 | 9.06154 | 9981 ft | 257 kts | 275° |
| 2026-02-19 15:38 | 45.65471 | 9.03644 | 9807 ft | 252 kts | 275° |
| 2026-02-19 15:38 | 45.65477 | 9.01121 | 9678 ft | 251 kts | 273° |
| 2026-02-19 15:38 | 45.65440 | 8.98608 | 9436 ft | 258 kts | 264° |
| 2026-02-19 15:38 | 45.64793 | 8.96209 | 9243 ft | 268 kts | 246° |
| 2026-02-19 15:39 | 45.63927 | 8.93810 | 8927 ft | 273 kts | 246° |
| 2026-02-19 15:39 | 45.63068 | 8.91413 | 8725 ft | 268 kts | 244° |
| 2026-02-19 15:39 | 45.61875 | 8.89412 | 8585 ft | 265 kts | 215° |
| 2026-02-19 15:39 | 45.60180 | 8.88463 | 8382 ft | 263 kts | 189° |
| 2026-02-19 15:40 | 45.58364 | 8.88518 | 8160 ft | 262 kts | 172° |
| 2026-02-19 15:40 | 45.54813 | 8.89529 | 7636 ft | 259 kts | 169° |
| 2026-02-19 15:41 | 45.51295 | 8.90525 | 7123 ft | 257 kts | 170° |
| 2026-02-19 15:41 | 45.49544 | 8.91008 | 6864 ft | 255 kts | 170° |
| 2026-02-19 15:41 | 45.47804 | 8.91485 | 6610 ft | 254 kts | 170° |
| 2026-02-19 15:41 | 45.46066 | 8.91960 | 6360 ft | 253 kts | 170° |
| 2026-02-19 15:42 | 45.44339 | 8.92430 | 6114 ft | 252 kts | 170° |
| 2026-02-19 15:42 | 45.42616 | 8.92898 | 5886 ft | 252 kts | 170° |
| 2026-02-19 15:42 | 45.40887 | 8.93368 | 5612 ft | 254 kts | 171° |
| 2026-02-19 15:42 | 45.39149 | 8.93839 | 5354 ft | 253 kts | 171° |
| 2026-02-19 15:43 | 45.37424 | 8.94307 | 5098 ft | 252 kts | 172° |
| 2026-02-19 15:43 | 45.35706 | 8.94773 | 4844 ft | 251 kts | 172° |
| 2026-02-19 15:43 | 45.33999 | 8.95235 | 4590 ft | 249 kts | 172° |
| 2026-02-19 15:43 | 45.32301 | 8.95694 | 4339 ft | 248 kts | 172° |
| 2026-02-19 15:44 | 45.30608 | 8.96152 | 4083 ft | 247 kts | 172° |
| 2026-02-19 15:44 | 45.27355 | 8.97025 | 3956 ft | 224 kts | 176° |
| 2026-02-19 15:44 | 45.25941 | 8.96649 | 3921 ft | 199 kts | 219° |
| 2026-02-19 15:45 | 45.25071 | 8.95157 | 3945 ft | 197 kts | 245° |
| 2026-02-19 15:45 | 45.24699 | 8.93334 | 3932 ft | 191 kts | 269° |
| 2026-02-19 15:45 | 45.24925 | 8.91511 | 3933 ft | 188 kts | 293° |
| 2026-02-19 15:45 | 45.25652 | 8.89971 | 3931 ft | 191 kts | 315° |
| 2026-02-19 15:46 | 45.26749 | 8.88901 | 3982 ft | 193 kts | 327° |
| 2026-02-19 15:46 | 45.27897 | 8.87900 | 3970 ft | 195 kts | 327° |
| 2026-02-19 15:46 | 45.29056 | 8.86886 | 3983 ft | 196 kts | 327° |
| 2026-02-19 15:46 | 45.30223 | 8.85868 | 3977 ft | 198 kts | 327° |
| 2026-02-19 15:47 | 45.31399 | 8.84843 | 3966 ft | 198 kts | 327° |
| 2026-02-19 15:47 | 45.32576 | 8.83817 | 3965 ft | 198 kts | 327° |
| 2026-02-19 15:47 | 45.33747 | 8.82795 | 3960 ft | 197 kts | 327° |
| 2026-02-19 15:47 | 45.34910 | 8.81781 | 3956 ft | 196 kts | 327° |
| 2026-02-19 15:48 | 45.36070 | 8.80768 | 3961 ft | 195 kts | 327° |
| 2026-02-19 15:48 | 45.38633 | 8.79627 | 3839 ft | 198 kts | 351° |
| 2026-02-19 15:48 | 45.40002 | 8.79383 | 3723 ft | 198 kts | 350° |
| 2026-02-19 15:49 | 45.41360 | 8.79157 | 3621 ft | 196 kts | 352° |
| 2026-02-19 15:49 | 45.42709 | 8.78921 | 3513 ft | 194 kts | 349° |
| 2026-02-19 15:49 | 45.44028 | 8.78603 | 3437 ft | 191 kts | 347° |
| 2026-02-19 15:49 | 45.45330 | 8.78253 | 3334 ft | 191 kts | 347° |
| 2026-02-19 15:50 | 45.46639 | 8.77893 | 3249 ft | 192 kts | 347° |
| 2026-02-19 15:50 | 45.47950 | 8.77529 | 3150 ft | 192 kts | 347° |
| 2026-02-19 15:50 | 45.49247 | 8.77169 | 3044 ft | 193 kts | 347° |
| 2026-02-19 15:50 | 45.50550 | 8.76808 | 2971 ft | 191 kts | 347° |
| 2026-02-19 15:51 | 45.51853 | 8.76446 | 2767 ft | 188 kts | 347° |
| 2026-02-19 15:51 | 45.53103 | 8.76100 | 2515 ft | 178 kts | 347° |
| 2026-02-19 15:51 | 45.54281 | 8.75774 | 2267 ft | 166 kts | 347° |
| 2026-02-19 15:51 | 45.55357 | 8.75475 | 2073 ft | 152 kts | 346° |
| 2026-02-19 15:52 | 45.56380 | 8.75191 | 1856 ft | 149 kts | 346° |
| 2026-02-19 15:52 | 45.58401 | 8.74642 | 1409 ft | 147 kts | 347° |
| 2026-02-19 15:52 | 45.59397 | 8.74385 | 1205 ft | 145 kts | 344° |
| 2026-02-19 15:53 | 45.60381 | 8.74055 | 1024 ft | 147 kts | 347° |
| 2026-02-19 15:53 | 45.61389 | 8.73800 | 830 ft | 146 kts | 346° |
| 2026-02-19 15:53 | 45.62354 | 8.73543 | 746 ft | 131 kts | 343° |
| 2026-02-19 15:53 | 45.63052 | 8.73338 | 742 ft | 72 kts | 350° |
| 2026-02-19 15:54 | 45.63364 | 8.73255 | 744 ft | 33 kts | 347° |
| 2026-02-19 15:54 | 45.63583 | 8.73181 | 744 ft | 31 kts | 341° |
| 2026-02-19 15:54 | 45.63853 | 8.72832 | 749 ft | 14 kts | 303° |
| 2026-02-19 15:55 | 45.63907 | 8.72715 | 750 ft | 14 kts | 303° |
| 2026-02-19 15:55 | 45.63902 | 8.72603 | 749 ft | 13 kts | 206° |
| 2026-02-19 15:55 | 45.63813 | 8.72606 | 747 ft | 13 kts | 169° |
| 2026-02-19 15:55 | 45.63727 | 8.72630 | 751 ft | 13 kts | 168° |
| 2026-02-19 15:56 | 45.63642 | 8.72655 | 750 ft | 12 kts | 168° |
| 2026-02-19 15:56 | 45.63477 | 8.72697 | 747 ft | 12 kts | 167° |
| 2026-02-19 15:56 | 45.63396 | 8.72724 | 751 ft | 12 kts | 167° |
| 2026-02-19 15:57 | 45.63317 | 8.72743 | 750 ft | 11 kts | 175° |
| 2026-02-19 15:57 | 45.63240 | 8.72762 | 751 ft | 11 kts | 162° |
| 2026-02-19 15:57 | 45.63081 | 8.72806 | 749 ft | 15 kts | 168° |
| 2026-02-19 15:58 | 45.62963 | 8.72840 | 752 ft | 17 kts | 169° |
| 2026-02-19 15:58 | 45.62862 | 8.72867 | 750 ft | 12 kts | 170° |
| 2026-02-19 15:58 | 45.62786 | 8.72885 | 751 ft | 11 kts | 170° |
| 2026-02-19 15:58 | 45.62714 | 8.72903 | 752 ft | 10 kts | 170° |
| 2026-02-19 15:59 | 45.62644 | 8.72925 | 750 ft | 10 kts | 167° |
| 2026-02-19 15:59 | 45.62577 | 8.72946 | 750 ft | 10 kts | 167° |
| 2026-02-19 15:59 | 45.62499 | 8.72965 | 750 ft | 12 kts | 171° |
| 2026-02-19 15:59 | 45.62415 | 8.72987 | 750 ft | 12 kts | 168° |
| 2026-02-19 16:00 | 45.62334 | 8.73010 | 752 ft | 12 kts | 168° |
| 2026-02-19 16:00 | 45.62177 | 8.73054 | 749 ft | 11 kts | 169° |
| 2026-02-19 16:00 | 45.62102 | 8.73075 | 752 ft | 11 kts | 169° |
| 2026-02-19 16:01 | 45.62029 | 8.73094 | 749 ft | 11 kts | 169° |
| 2026-02-19 16:01 | 45.61959 | 8.73113 | 752 ft | 10 kts | 169° |
| 2026-02-19 16:01 | 45.61890 | 8.73131 | 749 ft | 10 kts | 169° |
| 2026-02-19 16:01 | 45.61823 | 8.73148 | 751 ft | 10 kts | 170° |
| 2026-02-19 16:02 | 45.61757 | 8.73165 | 752 ft | 9 kts | 170° |
| 2026-02-19 16:02 | 45.61694 | 8.73180 | 750 ft | 9 kts | 170° |
| 2026-02-19 16:02 | 45.61570 | 8.73221 | 752 ft | 11 kts | 174° |
| 2026-02-19 16:03 | 45.61483 | 8.73241 | 749 ft | 15 kts | 161° |
| 2026-02-19 16:03 | 45.61365 | 8.73279 | 751 ft | 16 kts | 169° |
| 2026-02-19 16:03 | 45.61262 | 8.73306 | 751 ft | 16 kts | 170° |
| 2026-02-19 16:03 | 45.61147 | 8.73338 | 752 ft | 18 kts | 165° |
| 2026-02-19 16:04 | 45.61014 | 8.73381 | 751 ft | 19 kts | 168° |
| 2026-02-19 16:04 | 45.60778 | 8.73353 | 753 ft | 20 kts | 202° |
| 2026-02-19 16:04 | 45.60639 | 8.73270 | 751 ft | 22 kts | 209° |
| 2026-02-19 16:05 | 45.60595 | 8.73068 | 750 ft | 23 kts | 274° |
| 2026-02-19 16:05 | 45.60610 | 8.72853 | 751 ft | 23 kts | 275° |
| 2026-02-19 16:05 | 45.60625 | 8.72662 | 753 ft | 14 kts | 278° |
| 2026-02-19 16:05 | 45.60637 | 8.72499 | 752 ft | 19 kts | 277° |
| 2026-02-19 16:06 | 45.60634 | 8.72344 | 751 ft | 11 kts | 262° |
| 2026-02-19 16:06 | 45.60632 | 8.72249 | 751 ft | 8 kts | 303° |
| 2026-02-19 16:06 | 45.60687 | 8.72242 | 752 ft | 7 kts | 347° |
| 2026-02-19 16:06 | 45.60697 | 8.72163 | 749 ft | 10 kts | 261° |
| 2026-02-19 16:07 | 45.60690 | 8.72111 | 752 ft | 1 kts | 259° |
| 2026-02-19 16:07 | 45.60690 | 8.72110 | 752 ft | 0 kts | 259° |